createdAt,value
2022-09-13T00:01:00.206Z,5.75
2022-09-13T00:03:27.606Z,5.30
2022-09-13T00:05:54.810Z,5.20
2022-09-13T00:08:22.182Z,4.78
2022-09-13T00:10:49.365Z,5.47
2022-09-13T00:13:17.039Z,5.45
2022-09-13T00:15:49.401Z,5.15
2022-09-13T00:18:18.158Z,5.35
2022-09-13T00:20:45.605Z,5.25
2022-09-13T00:23:13.259Z,5.35
2022-09-13T00:25:40.691Z,4.88
2022-09-13T00:28:08.076Z,4.85
2022-09-13T00:30:35.517Z,5.10
2022-09-13T00:33:05.261Z,5.65
2022-09-13T00:35:32.851Z,5.38
2022-09-13T00:38:01.317Z,5.10
2022-09-13T00:40:30.676Z,4.78
2022-09-13T00:42:57.958Z,5.68
2022-09-13T00:45:25.074Z,4.90
2022-09-13T00:48:07.291Z,4.30
2022-09-13T00:50:43.072Z,4.82
2022-09-13T00:53:33.055Z,5.13
2022-09-13T00:56:06.664Z,4.60
2022-09-13T00:58:35.243Z,4.35
2022-09-13T01:01:04.022Z,5.35
2022-09-13T01:03:33.465Z,5.47
2022-09-13T01:06:11.599Z,5.13
2022-09-13T01:08:40.653Z,5.10
2022-09-13T01:11:13.442Z,5.07
2022-09-13T01:13:41.396Z,4.85
2022-09-13T01:16:08.896Z,4.63
2022-09-13T01:18:35.976Z,4.78
2022-09-13T01:21:09.073Z,5.32
2022-09-13T01:23:57.773Z,5.57
2022-09-13T01:26:46.561Z,5.57
2022-09-13T01:29:44.599Z,5.60
2022-09-13T01:32:57.294Z,5.53
2022-09-13T01:35:47.734Z,5.55
2022-09-13T01:38:57.982Z,5.45
2022-09-13T01:41:43.273Z,4.57
2022-09-13T01:44:22.253Z,5.00
2022-09-13T01:47:12.229Z,4.67
2022-09-13T01:50:13.230Z,5.25
2022-09-13T01:53:02.011Z,5.03
2022-09-13T01:55:39.422Z,5.35
2022-09-13T01:58:28.060Z,5.40
2022-09-13T02:01:38.255Z,4.95
2022-09-13T02:04:21.329Z,5.63
2022-09-13T02:07:08.722Z,5.35
2022-09-13T02:09:41.873Z,5.57
2022-09-13T02:12:23.094Z,5.82
2022-09-13T02:15:03.568Z,5.97
2022-09-13T02:17:39.022Z,6.47
2022-09-13T02:20:12.601Z,5.55
2022-09-13T02:22:44.934Z,5.78
2022-09-13T02:25:16.171Z,6.50
2022-09-13T02:27:47.184Z,6.63
2022-09-13T02:30:15.860Z,6.53
2022-09-13T02:32:59.805Z,7.15
2022-09-13T02:35:37.673Z,5.88
2022-09-13T02:38:27.119Z,6.28
2022-09-13T02:41:00.428Z,6.75
2022-09-13T02:43:51.099Z,5.80
2022-09-13T02:46:29.884Z,5.82
2022-09-13T02:49:17.985Z,5.68
2022-09-13T02:52:03.373Z,6.10
2022-09-13T02:54:42.354Z,5.45
2022-09-13T02:57:40.457Z,6.07
2022-09-13T03:00:08.567Z,6.22
2022-09-13T03:02:37.892Z,6.40
2022-09-13T03:05:05.179Z,6.80
2022-09-13T03:08:37.352Z,6.43
2022-09-13T03:11:33.510Z,6.28
2022-09-13T03:14:22.187Z,6.50
2022-09-13T03:17:05.321Z,7.15
2022-09-13T03:20:09.540Z,6.22
2022-09-13T03:22:48.639Z,6.50
2022-09-13T03:25:53.032Z,6.03
2022-09-13T03:28:35.054Z,5.55
2022-09-13T03:31:31.672Z,6.32
2022-09-13T03:34:06.493Z,7.13
2022-09-13T03:36:33.512Z,6.18
2022-09-13T03:39:22.438Z,6.13
2022-09-13T03:41:55.978Z,5.70
2022-09-13T03:44:26.360Z,5.82
2022-09-13T03:46:58.014Z,5.80
2022-09-13T03:49:27.065Z,6.28
2022-09-13T03:51:55.121Z,5.97
2022-09-13T03:54:29.250Z,5.55
2022-09-13T03:57:17.592Z,5.70
2022-09-13T03:59:55.337Z,5.15
2022-09-13T04:02:24.693Z,4.75
2022-09-13T04:04:52.104Z,5.05
2022-09-13T04:07:22.245Z,5.25
2022-09-13T04:09:50.171Z,5.18
2022-09-13T04:12:18.067Z,5.57
2022-09-13T04:14:45.218Z,5.22
2022-09-13T04:17:13.207Z,5.18
2022-09-13T04:19:40.542Z,5.35
2022-09-13T04:22:07.838Z,5.38
2022-09-13T04:24:34.808Z,4.03
2022-09-13T04:27:01.982Z,4.40
2022-09-13T04:29:29.359Z,3.88
2022-09-13T04:31:56.369Z,4.18
2022-09-13T04:34:23.649Z,4.43
2022-09-13T04:36:52.304Z,3.75
2022-09-13T04:39:23.952Z,3.70
2022-09-13T04:41:54.908Z,4.53
2022-09-13T04:44:22.372Z,4.10
2022-09-13T04:46:49.735Z,3.90
2022-09-13T04:49:18.165Z,4.45
2022-09-13T04:51:45.154Z,4.47
2022-09-13T04:54:15.534Z,5.15
2022-09-13T04:56:43.846Z,4.32
2022-09-13T04:59:11.702Z,5.22
2022-09-13T05:01:44.981Z,5.78
2022-09-13T05:04:12.238Z,4.45
2022-09-13T05:06:39.180Z,4.40
2022-09-13T05:09:06.639Z,3.80
2022-09-13T05:11:34.051Z,3.58
2022-09-13T05:14:02.499Z,3.75
2022-09-13T05:16:33.025Z,4.32
2022-09-13T05:19:00.814Z,3.67
2022-09-13T05:21:28.188Z,4.28
2022-09-13T05:23:56.344Z,3.63
2022-09-13T05:26:24.988Z,3.42
2022-09-13T05:28:52.101Z,3.70
2022-09-13T05:31:25.089Z,3.95
2022-09-13T05:34:05.167Z,3.55
2022-09-13T05:36:33.096Z,3.35
2022-09-13T05:41:48.331Z,2.83
2022-09-13T05:44:15.316Z,2.95
2022-09-13T05:46:43.241Z,2.75
2022-09-13T05:49:13.084Z,2.63
2022-09-13T05:54:06.975Z,3.47
2022-09-13T05:56:33.888Z,2.95
2022-09-13T05:59:00.767Z,3.33
2022-09-13T06:01:29.192Z,2.90
2022-09-13T06:03:58.404Z,2.95
2022-09-13T06:06:25.975Z,3.13
2022-09-13T06:08:53.848Z,2.60
2022-09-13T06:11:21.440Z,2.80
2022-09-13T06:13:48.942Z,2.65
2022-09-13T06:16:17.069Z,2.92
2022-09-13T06:18:44.455Z,2.50
2022-09-13T06:21:18.467Z,2.40
2022-09-13T06:23:46.847Z,2.33
2022-09-13T06:26:15.896Z,2.22
2022-09-13T06:28:43.674Z,2.23
2022-09-13T06:31:15.364Z,2.63
2022-09-13T06:33:43.634Z,2.15
2022-09-13T06:36:19.114Z,2.30
2022-09-13T06:38:48.841Z,2.67
2022-09-13T06:43:47.969Z,2.40
2022-09-13T06:46:20.491Z,2.70
2022-09-13T06:48:50.977Z,2.40
2022-09-13T06:51:21.258Z,2.60
2022-09-13T06:53:49.210Z,2.55
2022-09-13T06:56:20.682Z,2.15
2022-09-13T06:58:49.505Z,2.25
2022-09-13T07:01:24.430Z,2.22
2022-09-13T07:03:59.660Z,2.40
2022-09-13T07:06:28.905Z,2.83
2022-09-13T07:08:57.717Z,2.78
2022-09-13T07:11:27.516Z,2.58
2022-09-13T07:13:56.940Z,2.00
2022-09-13T07:16:27.055Z,1.60
2022-09-13T07:19:03.214Z,2.22
2022-09-13T07:21:30.154Z,1.88
2022-09-13T07:23:57.716Z,1.80
2022-09-13T07:26:27.519Z,2.08
2022-09-13T07:31:27.558Z,1.58
2022-09-13T07:34:03.313Z,2.20
2022-09-13T07:36:32.050Z,1.85
2022-09-13T07:38:59.717Z,1.70
2022-09-13T07:41:28.425Z,1.67
2022-09-13T07:43:56.084Z,2.00
2022-09-13T07:46:25.950Z,1.95
2022-09-13T07:48:54.846Z,1.85
2022-09-13T07:51:30.932Z,2.10
2022-09-13T07:54:04.519Z,2.05
2022-09-13T07:56:33.921Z,2.20
2022-09-13T07:59:02.497Z,2.20
2022-09-13T08:01:35.646Z,2.20
2022-09-13T08:04:05.408Z,1.90
2022-09-13T08:06:33.793Z,1.63
2022-09-13T08:09:01.222Z,2.10
2022-09-13T08:11:31.485Z,1.90
2022-09-13T08:13:59.210Z,2.28
2022-09-13T08:16:28.348Z,2.15
2022-09-13T08:18:57.375Z,2.17
2022-09-13T08:21:25.346Z,2.22
2022-09-13T08:24:00.525Z,2.03
2022-09-13T08:26:32.484Z,2.10
2022-09-13T08:29:01.326Z,2.10
2022-09-13T08:31:29.060Z,2.33
2022-09-13T08:33:56.663Z,2.50
2022-09-13T08:36:24.487Z,2.38
2022-09-13T08:38:54.397Z,2.42
2022-09-13T08:41:40.269Z,2.30
2022-09-13T08:44:19.007Z,2.10
2022-09-13T08:46:47.077Z,1.83
2022-09-13T08:49:22.751Z,2.00
2022-09-13T08:52:01.258Z,2.00
2022-09-13T08:54:28.637Z,1.90
2022-09-13T08:57:12.148Z,2.10
2022-09-13T08:59:56.217Z,2.05
2022-09-13T09:02:32.098Z,1.98
2022-09-13T09:05:11.593Z,2.17
2022-09-13T09:07:54.493Z,2.33
2022-09-13T09:10:33.748Z,2.10
2022-09-13T09:13:08.411Z,2.03
2022-09-13T09:15:49.234Z,2.10
2022-09-13T09:18:28.169Z,2.20
2022-09-13T09:21:00.813Z,2.13
2022-09-13T09:23:30.770Z,2.40
2022-09-13T09:26:18.024Z,2.05
2022-09-13T09:28:54.144Z,1.92
2022-09-13T09:32:01.541Z,2.30
2022-09-13T09:34:46.550Z,1.98
2022-09-13T09:37:26.005Z,1.90
2022-09-13T09:39:55.557Z,2.22
2022-09-13T09:42:26.363Z,1.92
2022-09-13T09:45:18.179Z,2.10
2022-09-13T09:47:47.785Z,2.08
2022-09-13T09:50:23.143Z,1.95
2022-09-13T09:53:27.147Z,2.00
2022-09-13T09:56:05.913Z,2.00
2022-09-13T09:58:41.822Z,1.92
2022-09-13T10:01:38.400Z,1.95
2022-09-13T10:04:10.803Z,1.92
2022-09-13T10:06:39.495Z,1.80
2022-09-13T10:09:07.486Z,1.70
2022-09-13T10:11:47.976Z,1.70
2022-09-13T10:14:48.479Z,1.70
2022-09-13T10:17:27.638Z,1.88
2022-09-13T10:20:01.554Z,2.28
2022-09-13T10:22:31.179Z,1.80
2022-09-13T10:25:14.122Z,1.77
2022-09-13T10:27:47.744Z,1.80
2022-09-13T10:30:43.604Z,2.08
2022-09-13T10:33:27.101Z,2.03
2022-09-13T10:35:57.676Z,1.88
2022-09-13T10:38:31.338Z,1.42
2022-09-13T10:41:01.661Z,1.50
2022-09-13T10:43:30.608Z,1.77
2022-09-13T10:45:58.734Z,1.40
2022-09-13T10:48:25.817Z,1.58
2022-09-13T10:51:03.741Z,1.63
2022-09-13T10:53:35.496Z,1.58
2022-09-13T10:56:02.796Z,1.45
2022-09-13T10:58:30.336Z,1.40
2022-09-13T11:01:17.622Z,1.50
2022-09-13T11:04:38.166Z,1.55
2022-09-13T11:07:32.559Z,1.50
2022-09-13T11:10:38.078Z,1.40
2022-09-13T11:13:27.514Z,1.80
2022-09-13T11:16:23.804Z,1.75
2022-09-13T11:19:02.591Z,1.63
2022-09-13T11:21:42.544Z,1.40
2022-09-13T11:24:30.617Z,1.38
2022-09-13T11:27:21.933Z,1.30
2022-09-13T11:30:10.705Z,1.45
2022-09-13T11:32:50.326Z,1.50
2022-09-13T11:35:42.492Z,1.40
2022-09-13T11:38:18.140Z,1.23
2022-09-13T11:41:28.319Z,1.33
2022-09-13T11:44:01.296Z,1.20
2022-09-13T11:47:01.643Z,1.13
2022-09-13T11:49:41.469Z,1.05
2022-09-13T11:52:23.388Z,1.55
2022-09-13T11:55:22.140Z,1.10
2022-09-13T11:58:02.121Z,1.20
2022-09-13T12:00:41.274Z,1.00
2022-09-13T12:03:11.279Z,1.23
2022-09-13T12:05:51.699Z,1.30
2022-09-13T12:08:35.761Z,1.35
2022-09-13T12:11:25.074Z,1.20
2022-09-13T12:13:56.349Z,1.20
2022-09-13T12:16:30.978Z,1.52
2022-09-13T12:19:26.300Z,1.23
2022-09-13T12:22:00.160Z,1.42
2022-09-13T12:24:34.596Z,1.25
2022-09-13T12:27:09.236Z,1.40
2022-09-13T12:29:57.679Z,1.55
2022-09-13T12:32:24.793Z,1.70
2022-09-13T12:35:29.744Z,1.73
2022-09-13T12:38:10.566Z,1.77
2022-09-13T12:40:58.852Z,1.70
2022-09-13T12:43:59.894Z,1.40
2022-09-13T12:47:01.128Z,1.52
2022-09-13T12:49:52.238Z,1.88
2022-09-13T12:52:32.009Z,1.60
2022-09-13T12:59:26.916Z,1.40
2022-09-13T13:01:54.473Z,1.75
2022-09-13T13:04:33.717Z,1.60
2022-09-13T13:07:05.553Z,1.80
2022-09-13T13:09:46.450Z,1.60
2022-09-13T13:12:37.953Z,1.60
2022-09-13T13:15:07.834Z,1.48
2022-09-13T13:17:46.023Z,1.40
2022-09-13T13:21:06.930Z,1.50
2022-09-13T13:23:39.359Z,1.40
2022-09-13T13:26:21.761Z,1.73
2022-09-13T13:28:52.299Z,2.00
2022-09-13T13:31:27.293Z,1.83
2022-09-13T13:34:06.147Z,1.55
2022-09-13T13:36:42.201Z,1.70
2022-09-13T13:39:27.077Z,1.80
2022-09-13T13:42:00.902Z,1.50
2022-09-13T13:44:28.193Z,1.85
2022-09-13T13:47:15.160Z,1.60
2022-09-13T13:49:42.127Z,1.40
2022-09-13T13:52:09.140Z,1.30
2022-09-13T13:54:42.345Z,1.20
2022-09-13T13:57:41.170Z,1.50
2022-09-13T14:00:26.873Z,1.30
2022-09-13T14:03:02.230Z,1.45
2022-09-13T14:05:41.374Z,1.40
2022-09-13T14:08:26.293Z,1.30
2022-09-13T14:11:26.354Z,1.42
2022-09-13T14:14:17.914Z,1.50
2022-09-13T14:17:00.252Z,1.52
2022-09-13T14:19:29.693Z,1.52
2022-09-13T14:22:11.769Z,1.77
2022-09-13T14:24:42.329Z,1.20
2022-09-13T14:27:19.885Z,1.20
2022-09-13T14:29:50.626Z,1.60
2022-09-13T14:32:20.946Z,1.40
2022-09-13T14:35:02.443Z,1.40
2022-09-13T14:37:37.748Z,1.60
2022-09-13T14:40:20.442Z,1.40
2022-09-13T14:42:51.681Z,1.83
2022-09-13T14:45:29.712Z,1.60
2022-09-13T14:48:17.689Z,1.60
2022-09-13T14:50:56.865Z,1.48
2022-09-13T14:53:30.812Z,1.10
2022-09-13T14:56:05.356Z,1.27
2022-09-13T14:58:46.466Z,1.30
2022-09-13T15:01:18.120Z,1.42
2022-09-13T15:03:47.078Z,1.30
2022-09-13T15:06:27.173Z,1.25
2022-09-13T15:09:18.853Z,1.35
2022-09-13T15:11:54.741Z,1.13
2022-09-13T15:14:26.140Z,1.48
2022-09-13T15:16:55.072Z,1.30
2022-09-13T15:19:25.043Z,1.48
2022-09-13T15:21:52.136Z,1.17
2022-09-13T15:24:25.684Z,1.65
2022-09-13T15:27:16.607Z,1.40
2022-09-13T15:29:51.273Z,1.40
2022-09-13T15:32:23.775Z,1.38
2022-09-13T15:34:51.586Z,1.50
2022-09-13T15:37:28.172Z,1.77
2022-09-13T15:40:19.136Z,1.30
2022-09-13T15:42:51.368Z,1.45
2022-09-13T15:45:20.448Z,1.80
2022-09-13T15:47:49.085Z,1.80
2022-09-13T15:50:24.911Z,1.30
2022-09-13T15:52:51.798Z,1.50
2022-09-13T15:55:19.367Z,1.40
2022-09-13T15:57:46.829Z,1.10
2022-09-13T16:00:26.419Z,1.83
2022-09-13T16:05:21.060Z,1.65
2022-09-13T16:07:48.137Z,1.60
2022-09-13T16:10:20.788Z,1.80
2022-09-13T16:12:47.735Z,1.65
2022-09-13T16:15:15.559Z,1.70
2022-09-13T16:17:42.610Z,1.75
2022-09-13T16:20:13.447Z,1.52
2022-09-13T16:22:40.379Z,1.70
2022-09-13T16:25:07.825Z,1.65
2022-09-13T16:27:34.769Z,2.17
2022-09-13T16:30:02.071Z,1.80
2022-09-13T16:32:28.986Z,2.45
2022-09-13T16:34:56.123Z,1.83
2022-09-13T16:37:23.419Z,1.80
2022-09-13T16:39:50.514Z,1.90
2022-09-13T16:42:18.209Z,1.77
2022-09-13T16:44:45.199Z,2.30
2022-09-13T16:47:12.277Z,2.38
2022-09-13T16:49:39.350Z,1.92
2022-09-13T16:52:07.029Z,2.20
2022-09-13T16:54:35.159Z,2.22
2022-09-13T16:57:03.928Z,2.00
2022-09-13T16:59:32.232Z,2.58
2022-09-13T17:01:59.720Z,1.92
2022-09-13T17:04:26.739Z,2.10
2022-09-13T17:06:53.828Z,2.45
2022-09-13T17:09:22.519Z,2.53
2022-09-13T17:11:49.920Z,1.85
2022-09-13T17:14:17.938Z,1.58
2022-09-13T17:16:47.938Z,2.10
2022-09-13T17:19:18.412Z,2.40
2022-09-13T17:21:46.671Z,1.88
2022-09-13T17:24:13.944Z,1.98
2022-09-13T17:26:42.584Z,2.00
2022-09-13T17:29:11.745Z,2.15
2022-09-13T17:31:38.861Z,1.92
2022-09-13T17:34:05.757Z,2.35
2022-09-13T17:36:32.656Z,2.22
2022-09-13T17:38:59.881Z,1.88
2022-09-13T17:41:27.125Z,2.13
2022-09-13T17:43:54.649Z,2.38
2022-09-13T17:46:24.034Z,2.30
2022-09-13T17:48:52.787Z,2.30
2022-09-13T17:51:22.390Z,1.90
2022-09-13T17:53:50.431Z,1.92
2022-09-13T17:56:19.564Z,1.95
2022-09-13T17:58:46.844Z,2.60
2022-09-13T18:01:14.696Z,2.05
2022-09-13T18:04:11.774Z,2.10
2022-09-13T18:06:43.165Z,2.25
2022-09-13T18:09:11.501Z,2.65
2022-09-13T18:11:38.881Z,2.38
2022-09-13T18:14:06.949Z,2.50
2022-09-13T18:16:34.251Z,2.53
2022-09-13T18:19:01.716Z,2.80
2022-09-13T18:21:28.909Z,2.60
2022-09-13T18:23:58.424Z,2.72
2022-09-13T18:26:26.881Z,2.28
2022-09-13T18:29:05.437Z,2.20
2022-09-13T18:31:34.376Z,2.72
2022-09-13T18:34:04.070Z,2.83
2022-09-13T18:36:33.490Z,2.95
2022-09-13T18:39:02.999Z,2.95
2022-09-13T18:41:40.768Z,3.22
2022-09-13T18:44:09.595Z,3.15
2022-09-13T18:46:37.730Z,3.50
2022-09-13T18:49:05.812Z,3.95
2022-09-13T18:51:41.830Z,3.25
2022-09-13T18:54:11.729Z,3.63
2022-09-13T18:56:38.722Z,3.67
2022-09-13T18:59:06.712Z,3.53
2022-09-13T19:01:36.544Z,3.30
2022-09-13T19:04:05.817Z,2.95
2022-09-13T19:06:42.100Z,2.90
2022-09-13T19:09:10.271Z,2.50
2022-09-13T19:11:46.801Z,2.60
2022-09-13T19:14:19.105Z,2.38
2022-09-13T19:16:49.569Z,2.90
2022-09-13T19:19:16.553Z,2.75
2022-09-13T19:21:44.124Z,2.70
2022-09-13T19:24:17.834Z,2.67
2022-09-13T19:26:47.011Z,2.65
2022-09-13T19:29:16.308Z,2.65
2022-09-13T19:31:49.728Z,2.85
2022-09-13T19:34:19.172Z,3.05
2022-09-13T19:36:46.602Z,2.50
2022-09-13T19:39:14.076Z,3.00
2022-09-13T19:41:41.374Z,2.63
2022-09-13T19:44:10.366Z,3.00
2022-09-13T19:46:39.823Z,2.93
2022-09-13T19:49:08.532Z,2.83
2022-09-13T19:51:51.462Z,2.97
2022-09-13T19:54:19.543Z,3.35
2022-09-13T19:56:50.115Z,3.63
2022-09-13T19:59:24.323Z,3.33
2022-09-13T20:02:05.514Z,3.17
2022-09-13T20:05:47.070Z,3.30
2022-09-13T20:08:43.292Z,3.00
2022-09-13T20:15:28.779Z,3.03
2022-09-13T20:17:55.822Z,3.28
2022-09-13T20:20:24.332Z,3.20
2022-09-13T20:27:10.541Z,3.28
2022-09-13T20:29:37.586Z,3.05
2022-09-13T20:36:24.745Z,3.20
2022-09-13T20:38:55.199Z,3.88
2022-09-13T20:41:24.510Z,3.35
2022-09-13T20:43:52.805Z,3.60
2022-09-13T20:46:21.443Z,3.42
2022-09-13T20:48:49.343Z,3.58
2022-09-13T20:51:20.837Z,3.72
2022-09-13T20:53:52.501Z,3.60
2022-09-13T20:56:19.494Z,4.20
2022-09-13T20:58:46.831Z,3.50
2022-09-13T21:05:39.726Z,3.80
2022-09-13T21:08:25.060Z,4.35
2022-09-13T21:11:02.754Z,3.60
2022-09-13T21:13:34.202Z,3.92
2022-09-13T21:16:05.336Z,3.97
2022-09-13T21:18:32.997Z,4.70
2022-09-13T21:21:02.544Z,4.25
2022-09-13T21:23:34.301Z,3.55
2022-09-13T21:26:02.763Z,3.45
2022-09-13T21:28:29.706Z,4.22
2022-09-13T21:31:01.131Z,3.83
2022-09-13T21:33:28.740Z,3.63
2022-09-13T21:35:57.581Z,3.83
2022-09-13T21:38:26.338Z,3.43
2022-09-13T21:41:05.950Z,4.88
2022-09-13T21:43:34.211Z,6.15
2022-09-13T21:46:16.906Z,6.30
2022-09-13T21:48:46.143Z,6.20
2022-09-13T21:51:17.687Z,5.53
2022-09-13T21:53:46.125Z,6.75
2022-09-13T21:56:17.176Z,5.47
2022-09-13T21:58:55.682Z,5.38
2022-09-13T22:01:24.356Z,4.57
2022-09-13T22:03:52.595Z,4.35
2022-09-13T22:06:21.480Z,3.25
2022-09-13T22:08:54.610Z,3.70
2022-09-13T22:11:27.302Z,3.50
2022-09-13T22:13:55.654Z,3.80
2022-09-13T22:16:32.891Z,3.72
2022-09-13T22:19:09.083Z,4.10
2022-09-13T22:21:45.373Z,4.32
2022-09-13T22:24:19.909Z,3.85
2022-09-13T22:26:48.254Z,4.47
2022-09-13T22:29:15.676Z,3.78
2022-09-13T22:31:44.863Z,4.35
2022-09-13T22:34:14.440Z,4.15
2022-09-13T22:36:41.959Z,4.25
2022-09-13T22:39:11.926Z,4.43
2022-09-13T22:41:39.761Z,3.75
2022-09-13T22:44:06.849Z,4.03
2022-09-13T22:46:39.384Z,4.28
2022-09-13T22:49:07.003Z,4.90
2022-09-13T22:51:34.234Z,4.28
2022-09-13T22:54:05.017Z,3.95
2022-09-13T22:56:35.555Z,4.75
2022-09-13T22:59:07.734Z,4.25
2022-09-13T23:01:35.524Z,4.38
2022-09-13T23:04:03.207Z,4.20
2022-09-13T23:06:30.902Z,4.55
2022-09-13T23:09:00.785Z,4.03
2022-09-13T23:11:36.616Z,4.43
2022-09-13T23:14:12.546Z,4.40
2022-09-13T23:16:50.485Z,6.30
2022-09-13T23:19:19.409Z,7.88
2022-09-13T23:21:46.514Z,10.77
2022-09-13T23:24:16.604Z,10.05
2022-09-13T23:26:44.689Z,8.45
2022-09-13T23:29:14.964Z,7.07
2022-09-13T23:31:42.617Z,6.85
2022-09-13T23:34:10.613Z,6.55
2022-09-13T23:36:39.481Z,5.60
2022-09-13T23:39:10.225Z,5.30
2022-09-13T23:41:37.322Z,4.95
2022-09-13T23:44:04.515Z,4.60
2022-09-13T23:46:31.527Z,4.88
2022-09-13T23:48:58.472Z,4.97
2022-09-13T23:51:27.010Z,4.95
2022-09-13T23:54:01.026Z,5.00
2022-09-13T23:56:30.865Z,5.05
